createdAt,value
2018-10-07T00:00:22.973Z,0
2018-10-07T00:01:22.909Z,0
2018-10-07T00:02:22.905Z,0
2018-10-07T00:03:22.939Z,0
2018-10-07T00:04:22.653Z,0
2018-10-07T00:05:22.489Z,0
2018-10-07T00:06:23.163Z,0
2018-10-07T00:07:22.953Z,0
2018-10-07T00:08:23.175Z,0
2018-10-07T00:09:22.902Z,0
2018-10-07T00:10:23.238Z,0
2018-10-07T00:11:22.391Z,0
2018-10-07T00:12:23.214Z,0
2018-10-07T00:13:22.932Z,0
2018-10-07T00:14:22.895Z,0
2018-10-07T00:15:22.430Z,0
2018-10-07T00:16:22.631Z,0
2018-10-07T00:17:22.649Z,0
2018-10-07T00:18:22.896Z,0
2018-10-07T00:19:23.159Z,0
2018-10-07T00:20:22.958Z,0
2018-10-07T00:21:22.387Z,0
2018-10-07T00:22:22.891Z,0
2018-10-07T00:23:22.380Z,0
2018-10-07T00:24:22.642Z,0
2018-10-07T00:25:22.710Z,0
2018-10-07T00:26:22.893Z,0
2018-10-07T00:27:22.619Z,0
2018-10-07T00:28:22.895Z,0
2018-10-07T00:29:22.891Z,0
2018-10-07T00:30:22.946Z,0
2018-10-07T00:31:22.630Z,0
2018-10-07T00:32:22.886Z,0
2018-10-07T00:33:22.389Z,0
2018-10-07T00:34:22.383Z,0
2018-10-07T00:35:22.429Z,0
2018-10-07T00:36:22.636Z,0
2018-10-07T00:37:23.141Z,0
2018-10-07T00:38:22.681Z,0
2018-10-07T00:39:22.380Z,0
2018-10-07T00:40:23.253Z,0
2018-10-07T00:41:23.161Z,0
2018-10-07T00:42:23.947Z,0
2018-10-07T00:43:23.148Z,0
2018-10-07T00:44:23.148Z,0
2018-10-07T00:45:22.716Z,0
2018-10-07T00:46:22.868Z,0
2018-10-07T00:47:22.643Z,0
2018-10-07T00:48:22.355Z,0
2018-10-07T00:49:22.397Z,0
2018-10-07T00:50:22.896Z,0
2018-10-07T00:51:22.923Z,0
2018-10-07T00:52:23.420Z,0
2018-10-07T00:53:22.615Z,0
2018-10-07T00:54:22.606Z,0
2018-10-07T00:55:22.915Z,0
2018-10-07T00:56:22.598Z,0
2018-10-07T00:57:22.604Z,0
2018-10-07T00:58:22.871Z,0
2018-10-07T00:59:22.886Z,0
2018-10-07T01:00:22.668Z,0
2018-10-07T01:01:22.350Z,0
2018-10-07T01:02:22.089Z,0
2018-10-07T01:03:22.342Z,0
2018-10-07T01:04:22.885Z,0
2018-10-07T01:05:22.776Z,0
2018-10-07T01:06:22.860Z,0
2018-10-07T01:07:22.868Z,0
2018-10-07T01:08:22.362Z,0
2018-10-07T01:09:22.855Z,0
2018-10-07T01:10:22.657Z,0
2018-10-07T01:11:22.607Z,0
2018-10-07T01:12:22.336Z,0
2018-10-07T01:13:22.847Z,0
2018-10-07T01:14:22.625Z,0
2018-10-07T01:15:22.885Z,0
2018-10-07T01:16:23.121Z,0
2018-10-07T01:17:22.870Z,0
2018-10-07T01:18:23.116Z,0
2018-10-07T01:19:22.632Z,0
2018-10-07T01:20:22.668Z,0
2018-10-07T01:21:22.838Z,0
2018-10-07T01:22:22.851Z,0
2018-10-07T01:23:22.838Z,0
2018-10-07T01:24:22.581Z,0
2018-10-07T01:25:23.152Z,0
2018-10-07T01:26:22.869Z,0
2018-10-07T01:27:23.140Z,0
2018-10-07T01:28:22.581Z,0
2018-10-07T01:29:22.327Z,0
2018-10-07T01:30:23.166Z,0
2018-10-07T01:31:23.110Z,0
2018-10-07T01:32:23.034Z,0
2018-10-07T01:33:22.586Z,0
2018-10-07T01:34:23.107Z,0
2018-10-07T01:35:22.929Z,0
2018-10-07T01:36:22.597Z,0
2018-10-07T01:37:22.599Z,0
2018-10-07T01:38:22.587Z,0
2018-10-07T01:39:22.570Z,0
2018-10-07T01:40:22.665Z,0
2018-10-07T01:41:22.826Z,0
2018-10-07T01:42:23.078Z,0
2018-10-07T01:43:23.074Z,0
2018-10-07T01:44:22.605Z,0
2018-10-07T01:45:22.421Z,0
2018-10-07T01:46:22.808Z,0
2018-10-07T01:47:23.062Z,0
2018-10-07T01:48:22.827Z,0
2018-10-07T01:49:22.812Z,0
2018-10-07T01:50:22.861Z,0
2018-10-07T01:51:22.555Z,0
2018-10-07T01:52:22.820Z,0
2018-10-07T01:53:22.806Z,0
2018-10-07T01:54:22.549Z,0
2018-10-07T01:55:22.889Z,0
2018-10-07T01:56:22.865Z,0
2018-10-07T01:57:22.585Z,0
2018-10-07T01:58:23.075Z,0
2018-10-07T01:59:23.325Z,0
2018-10-07T02:00:22.867Z,0
2018-10-07T02:01:22.813Z,0
2018-10-07T02:02:22.297Z,0
2018-10-07T02:03:22.293Z,0
2018-10-07T02:04:22.793Z,0
2018-10-07T02:05:22.962Z,0
2018-10-07T02:06:22.536Z,0
2018-10-07T02:07:23.079Z,0
2018-10-07T02:08:22.800Z,0
2018-10-07T02:09:22.793Z,0
2018-10-07T02:10:22.883Z,0
2018-10-07T02:11:22.527Z,0
2018-10-07T02:12:22.526Z,0
2018-10-07T02:13:22.543Z,0
2018-10-07T02:14:22.534Z,0
2018-10-07T02:15:23.697Z,0
2018-10-07T02:16:22.542Z,0
2018-10-07T02:17:22.918Z,0
2018-10-07T02:18:22.525Z,0
2018-10-07T02:19:23.042Z,0
2018-10-07T02:20:22.826Z,0
2018-10-07T02:21:22.811Z,0
2018-10-07T02:22:22.782Z,0
2018-10-07T02:23:22.509Z,0
2018-10-07T02:24:22.769Z,0
2018-10-07T02:25:22.858Z,0
2018-10-07T02:26:23.084Z,0
2018-10-07T02:27:22.818Z,0
2018-10-07T02:28:22.778Z,0
2018-10-07T02:29:22.527Z,0
2018-10-07T02:30:22.854Z,0
2018-10-07T02:31:22.834Z,0
2018-10-07T02:32:22.977Z,0
2018-10-07T02:33:22.782Z,0
2018-10-07T02:34:22.312Z,0
2018-10-07T02:35:22.557Z,0
2018-10-07T02:36:22.766Z,0
2018-10-07T02:37:23.024Z,0
2018-10-07T02:38:22.827Z,0
2018-10-07T02:39:22.510Z,0
2018-10-07T02:40:22.573Z,0
2018-10-07T02:41:22.502Z,0
2018-10-07T02:42:22.491Z,0
2018-10-07T02:43:22.767Z,0
2018-10-07T02:44:22.291Z,0
2018-10-07T02:45:22.550Z,0
2018-10-07T02:46:22.251Z,0
2018-10-07T02:47:22.494Z,0
2018-10-07T02:48:22.249Z,0
2018-10-07T02:49:22.752Z,0
2018-10-07T02:50:22.816Z,0
2018-10-07T02:51:22.776Z,0
2018-10-07T02:52:22.747Z,0
2018-10-07T02:53:23.196Z,0
2018-10-07T02:54:22.489Z,0
2018-10-07T02:55:22.758Z,0
2018-10-07T02:56:22.517Z,0
2018-10-07T02:57:22.488Z,0
2018-10-07T02:58:22.493Z,0
2018-10-07T02:59:22.800Z,0
2018-10-07T03:00:23.153Z,0
2018-10-07T03:01:22.787Z,0
2018-10-07T03:02:22.998Z,0
2018-10-07T03:03:22.493Z,0
2018-10-07T03:04:22.714Z,0
2018-10-07T03:05:22.785Z,0
2018-10-07T03:06:22.709Z,0
2018-10-07T03:07:23.026Z,0
2018-10-07T03:08:22.986Z,0
2018-10-07T03:09:22.744Z,0
2018-10-07T03:10:22.807Z,0
2018-10-07T03:11:21.947Z,0
2018-10-07T03:12:21.952Z,0
2018-10-07T03:13:22.705Z,0
2018-10-07T03:14:22.489Z,0
2018-10-07T03:15:22.809Z,0
2018-10-07T03:16:22.458Z,0
2018-10-07T03:17:22.721Z,0
2018-10-07T03:18:22.513Z,0
2018-10-07T03:19:22.733Z,0
2018-10-07T03:20:23.051Z,0
2018-10-07T03:21:22.464Z,0
2018-10-07T03:22:22.705Z,0
2018-10-07T03:23:22.451Z,0
2018-10-07T03:24:22.697Z,0
2018-10-07T03:25:22.808Z,0
2018-10-07T03:26:22.450Z,0
2018-10-07T03:27:22.955Z,0
2018-10-07T03:28:22.976Z,0
2018-10-07T03:29:23.123Z,0
2018-10-07T03:30:23.022Z,0
2018-10-07T03:31:22.951Z,0
2018-10-07T03:32:22.466Z,0
2018-10-07T03:33:22.710Z,0
2018-10-07T03:34:22.964Z,0
2018-10-07T03:35:22.526Z,0
2018-10-07T03:36:22.432Z,0
2018-10-07T03:37:22.693Z,0
2018-10-07T03:38:22.946Z,0
2018-10-07T03:39:22.433Z,0
2018-10-07T03:40:22.990Z,0
2018-10-07T03:41:22.663Z,0
2018-10-07T03:42:22.691Z,0
2018-10-07T03:43:22.415Z,0
2018-10-07T03:44:22.690Z,0
2018-10-07T03:45:22.772Z,0
2018-10-07T03:46:22.926Z,0
2018-10-07T03:47:22.903Z,0
2018-10-07T03:48:22.681Z,0
2018-10-07T03:49:22.409Z,0
2018-10-07T03:50:22.719Z,0
2018-10-07T03:51:22.413Z,0
2018-10-07T03:52:22.923Z,0
2018-10-07T03:53:22.898Z,0
2018-10-07T03:54:22.665Z,0
2018-10-07T03:55:22.713Z,0
2018-10-07T03:56:22.455Z,0
2018-10-07T03:57:22.680Z,0
2018-10-07T03:58:22.397Z,0
2018-10-07T03:59:22.906Z,0
2018-10-07T04:00:22.693Z,0
2018-10-07T04:01:22.903Z,0
2018-10-07T04:02:22.895Z,0
2018-10-07T04:03:22.397Z,0
2018-10-07T04:04:22.375Z,0
2018-10-07T04:05:22.435Z,0
2018-10-07T04:06:22.146Z,0
2018-10-07T04:07:22.644Z,0
2018-10-07T04:08:22.666Z,0
2018-10-07T04:09:22.102Z,0
2018-10-07T04:10:22.406Z,0
2018-10-07T04:11:22.657Z,0
2018-10-07T04:12:22.380Z,0
2018-10-07T04:13:22.625Z,0
2018-10-07T04:14:22.635Z,0
2018-10-07T04:15:22.363Z,0
2018-10-07T04:16:22.609Z,0
2018-10-07T04:17:22.612Z,0
2018-10-07T04:18:22.638Z,0
2018-10-07T04:19:22.374Z,0
2018-10-07T04:20:22.636Z,0
2018-10-07T04:21:22.639Z,0
2018-10-07T04:22:22.403Z,0
2018-10-07T04:23:22.346Z,0
2018-10-07T04:24:22.630Z,0
2018-10-07T04:25:22.426Z,0
2018-10-07T04:26:22.847Z,0
2018-10-07T04:27:22.861Z,0
2018-10-07T04:28:22.342Z,0
2018-10-07T04:29:22.392Z,0
2018-10-07T04:30:22.619Z,0
2018-10-07T04:31:22.351Z,0
2018-10-07T04:32:22.947Z,0
2018-10-07T04:33:22.094Z,0
2018-10-07T04:34:22.575Z,0
2018-10-07T04:35:22.084Z,0
2018-10-07T04:36:22.079Z,0
2018-10-07T04:37:22.300Z,0
2018-10-07T04:38:22.822Z,0
2018-10-07T04:39:22.803Z,0
2018-10-07T04:40:22.599Z,0
2018-10-07T04:41:22.318Z,0
2018-10-07T04:42:22.324Z,0
2018-10-07T04:43:22.048Z,0
2018-10-07T04:44:22.329Z,0
2018-10-07T04:45:22.412Z,0
2018-10-07T04:46:22.495Z,0
2018-10-07T04:47:22.579Z,0
2018-10-07T04:48:22.539Z,0
2018-10-07T04:49:22.561Z,0
2018-10-07T04:50:22.597Z,0
2018-10-07T04:51:22.570Z,0
2018-10-07T04:52:22.801Z,0
2018-10-07T04:53:22.808Z,0
2018-10-07T04:54:22.277Z,0
2018-10-07T04:55:22.060Z,0
2018-10-07T04:56:22.828Z,0
2018-10-07T04:57:22.524Z,0
2018-10-07T04:58:22.784Z,0
2018-10-07T04:59:22.266Z,0
2018-10-07T05:00:22.679Z,0
2018-10-07T05:01:22.787Z,0
2018-10-07T05:02:21.749Z,0
2018-10-07T05:03:22.003Z,0
2018-10-07T05:04:22.792Z,0
2018-10-07T05:05:22.588Z,0
2018-10-07T05:06:22.755Z,0
2018-10-07T05:07:22.765Z,0
2018-10-07T05:08:21.715Z,0
2018-10-07T05:09:22.764Z,0
2018-10-07T05:10:22.796Z,0
2018-10-07T05:11:22.754Z,0
2018-10-07T05:12:23.122Z,0
2018-10-07T05:13:22.506Z,0
2018-10-07T05:14:22.476Z,0
2018-10-07T05:15:22.022Z,0
2018-10-07T05:16:22.462Z,0
2018-10-07T05:17:21.959Z,0
2018-10-07T05:18:22.231Z,0
2018-10-07T05:19:22.206Z,0
2018-10-07T05:20:22.297Z,0
2018-10-07T05:21:22.462Z,0
2018-10-07T05:22:21.920Z,0
2018-10-07T05:23:21.944Z,0
2018-10-07T05:24:21.921Z,0
2018-10-07T05:25:22.490Z,0
2018-10-07T05:26:22.433Z,0
2018-10-07T05:27:22.439Z,0
2018-10-07T05:28:22.203Z,0
2018-10-07T05:29:22.428Z,5
2018-10-07T05:30:22.764Z,5
2018-10-07T05:31:22.429Z,5
2018-10-07T05:32:22.671Z,5
2018-10-07T05:33:22.428Z,5
2018-10-07T05:34:22.421Z,5
2018-10-07T05:35:22.491Z,5
2018-10-07T05:36:22.393Z,10
2018-10-07T05:37:22.160Z,10
2018-10-07T05:38:22.387Z,10
2018-10-07T05:39:22.405Z,10
2018-10-07T05:40:21.963Z,10
2018-10-07T05:41:22.417Z,15
2018-10-07T05:42:22.647Z,15
2018-10-07T05:43:22.654Z,15
2018-10-07T05:44:22.982Z,20
2018-10-07T05:45:22.437Z,20
2018-10-07T05:46:22.411Z,20
2018-10-07T05:47:22.123Z,20
2018-10-07T05:48:22.372Z,25
2018-10-07T05:49:22.623Z,25
2018-10-07T05:50:22.155Z,25
2018-10-07T05:51:22.622Z,30
2018-10-07T05:52:22.096Z,30
2018-10-07T05:53:22.382Z,30
2018-10-07T05:54:22.366Z,35
2018-10-07T05:55:22.672Z,35
2018-10-07T05:56:22.095Z,35
2018-10-07T05:57:22.139Z,35
2018-10-07T05:58:22.625Z,40
2018-10-07T05:59:22.104Z,40
2018-10-07T06:00:22.178Z,40
2018-10-07T06:01:22.346Z,45
2018-10-07T06:02:22.437Z,45
2018-10-07T06:03:21.825Z,45
2018-10-07T06:04:22.082Z,45
2018-10-07T06:05:22.160Z,50
2018-10-07T06:06:22.337Z,50
2018-10-07T06:07:22.594Z,50
2018-10-07T06:08:22.600Z,50
2018-10-07T06:09:22.619Z,55
2018-10-07T06:10:22.442Z,55
2018-10-07T06:11:22.336Z,55
2018-10-07T06:12:22.338Z,55
2018-10-07T06:13:22.319Z,60
2018-10-07T06:14:22.062Z,60
2018-10-07T06:15:22.673Z,60
2018-10-07T06:16:21.810Z,65
2018-10-07T06:17:22.336Z,65
2018-10-07T06:18:22.347Z,65
2018-10-07T06:19:22.578Z,65
2018-10-07T06:20:22.617Z,70
2018-10-07T06:21:22.380Z,70
2018-10-07T06:22:22.330Z,70
2018-10-07T06:23:22.052Z,70
2018-10-07T06:24:22.571Z,75
2018-10-07T06:25:22.561Z,75
2018-10-07T06:26:22.576Z,75
2018-10-07T06:27:22.025Z,75
2018-10-07T06:28:21.772Z,80
2018-10-07T06:29:22.311Z,80
2018-10-07T06:30:22.580Z,80
2018-10-07T06:31:21.767Z,85
2018-10-07T06:32:22.332Z,85
2018-10-07T06:33:22.593Z,85
2018-10-07T06:34:22.063Z,85
2018-10-07T06:35:21.564Z,90
2018-10-07T06:36:22.330Z,90
2018-10-07T06:37:22.015Z,90
2018-10-07T06:38:22.538Z,90
2018-10-07T06:39:22.280Z,95
2018-10-07T06:40:22.334Z,95
2018-10-07T06:41:22.718Z,95
2018-10-07T06:42:22.297Z,95
2018-10-07T06:43:21.797Z,95
2018-10-07T06:44:22.282Z,95
2018-10-07T06:45:22.562Z,95
2018-10-07T06:46:22.261Z,95
2018-10-07T06:47:22.280Z,100
2018-10-07T06:48:22.035Z,100
2018-10-07T06:49:21.994Z,100
2018-10-07T06:50:22.030Z,100
2018-10-07T06:51:21.485Z,105
2018-10-07T06:52:22.255Z,105
2018-10-07T06:53:22.298Z,105
2018-10-07T06:54:22.006Z,110
2018-10-07T06:55:22.362Z,110
2018-10-07T06:56:22.259Z,110
2018-10-07T06:57:22.104Z,115
2018-10-07T06:58:22.516Z,115
2018-10-07T06:59:22.267Z,115
2018-10-07T07:00:22.369Z,120
2018-10-07T07:01:22.247Z,120
2018-10-07T07:02:22.028Z,120
2018-10-07T07:03:22.277Z,125
2018-10-07T07:04:21.972Z,125
2018-10-07T07:05:22.560Z,125
2018-10-07T07:06:22.125Z,130
2018-10-07T07:07:22.231Z,130
2018-10-07T07:08:22.506Z,135
2018-10-07T07:09:22.253Z,140
2018-10-07T07:10:22.241Z,145
2018-10-07T07:11:22.509Z,145
2018-10-07T07:12:22.258Z,155
2018-10-07T07:13:22.008Z,165
2018-10-07T07:14:21.713Z,170
2018-10-07T07:15:21.768Z,175
2018-10-07T07:16:22.024Z,170
2018-10-07T07:17:21.986Z,175
2018-10-07T07:18:22.230Z,175
2018-10-07T07:19:22.256Z,175
2018-10-07T07:20:23.256Z,175
2018-10-07T07:21:22.492Z,180
2018-10-07T07:22:21.977Z,180
2018-10-07T07:23:21.992Z,180
2018-10-07T07:24:21.754Z,185
2018-10-07T07:25:22.093Z,185
2018-10-07T07:26:22.257Z,185
2018-10-07T07:27:22.302Z,185
2018-10-07T07:28:21.988Z,185
2018-10-07T07:29:21.760Z,185
2018-10-07T07:30:22.539Z,190
2018-10-07T07:31:22.829Z,190
2018-10-07T07:32:21.800Z,190
2018-10-07T07:33:22.339Z,190
2018-10-07T07:34:22.027Z,190
2018-10-07T07:35:21.822Z,195
2018-10-07T07:36:22.294Z,195
2018-10-07T07:37:22.295Z,195
2018-10-07T07:38:22.297Z,195
2018-10-07T07:39:22.318Z,200
2018-10-07T07:40:22.530Z,200
2018-10-07T07:41:22.318Z,200
2018-10-07T07:42:22.323Z,200
2018-10-07T07:43:22.055Z,200
2018-10-07T07:44:22.325Z,200
2018-10-07T07:45:21.999Z,200
2018-10-07T07:46:22.263Z,200
2018-10-07T07:47:21.828Z,200
2018-10-07T07:48:22.622Z,200
2018-10-07T07:49:22.230Z,200
2018-10-07T07:50:22.370Z,205
2018-10-07T07:51:22.379Z,205
2018-10-07T07:52:22.371Z,205
2018-10-07T07:53:22.140Z,205
2018-10-07T07:54:22.667Z,205
2018-10-07T07:55:22.436Z,205
2018-10-07T07:56:22.377Z,205
2018-10-07T07:57:22.131Z,210
2018-10-07T07:58:22.148Z,205
2018-10-07T07:59:22.692Z,205
2018-10-07T08:00:22.451Z,205
2018-10-07T08:01:21.899Z,205
2018-10-07T08:02:22.577Z,205
2018-10-07T08:03:21.928Z,200
2018-10-07T08:04:22.422Z,205
2018-10-07T08:05:22.436Z,205
2018-10-07T08:06:22.447Z,205
2018-10-07T08:07:21.941Z,205
2018-10-07T08:08:22.199Z,205
2018-10-07T08:09:22.453Z,205
2018-10-07T08:10:22.262Z,205
2018-10-07T08:11:22.484Z,205
2018-10-07T08:12:21.944Z,200
2018-10-07T08:13:22.461Z,205
2018-10-07T08:14:22.227Z,210
2018-10-07T08:15:22.480Z,210
2018-10-07T08:16:22.480Z,210
2018-10-07T08:17:22.690Z,210
2018-10-07T08:18:22.492Z,210
2018-10-07T08:19:22.754Z,215
2018-10-07T08:20:22.563Z,215
2018-10-07T08:21:21.976Z,220
2018-10-07T08:22:22.490Z,215
2018-10-07T08:23:22.613Z,215
2018-10-07T08:24:22.759Z,215
2018-10-07T08:25:22.566Z,220
2018-10-07T08:26:22.791Z,220
2018-10-07T08:27:22.756Z,220
2018-10-07T08:28:22.511Z,220
2018-10-07T08:29:22.524Z,220
2018-10-07T08:30:22.545Z,220
2018-10-07T08:31:22.260Z,220
2018-10-07T08:32:22.788Z,220
2018-10-07T08:33:22.013Z,190
2018-10-07T08:34:23.056Z,225
2018-10-07T08:35:22.769Z,225
2018-10-07T08:36:22.518Z,225
2018-10-07T08:37:22.535Z,225
2018-10-07T08:38:22.528Z,225
2018-10-07T08:39:22.541Z,230
2018-10-07T08:40:22.551Z,225
2018-10-07T08:41:22.819Z,225
2018-10-07T08:42:22.528Z,225
2018-10-07T08:43:22.019Z,225
2018-10-07T08:44:22.794Z,225
2018-10-07T08:45:22.107Z,230
2018-10-07T08:46:22.020Z,220
2018-10-07T08:47:21.794Z,215
2018-10-07T08:48:22.547Z,215
2018-10-07T08:49:22.808Z,215
2018-10-07T08:50:22.964Z,215
2018-10-07T08:51:22.318Z,210
2018-10-07T08:52:22.546Z,215
2018-10-07T08:53:22.569Z,220
2018-10-07T08:54:22.301Z,225
2018-10-07T08:55:22.601Z,225
2018-10-07T08:56:22.928Z,225
2018-10-07T08:57:22.579Z,225
2018-10-07T08:58:22.553Z,225
2018-10-07T08:59:22.589Z,225
2018-10-07T09:00:22.555Z,225
2018-10-07T09:01:22.608Z,225
2018-10-07T09:02:22.862Z,225
2018-10-07T09:03:22.324Z,225
2018-10-07T09:04:21.812Z,225
2018-10-07T09:05:22.181Z,225
2018-10-07T09:06:22.848Z,225
2018-10-07T09:07:22.577Z,225
2018-10-07T09:08:22.597Z,225
2018-10-07T09:09:22.607Z,225
2018-10-07T09:10:22.337Z,225
2018-10-07T09:11:22.342Z,230
2018-10-07T09:12:22.077Z,225
2018-10-07T09:13:22.082Z,225
2018-10-07T09:14:22.363Z,225
2018-10-07T09:15:22.169Z,225
2018-10-07T09:16:22.119Z,230
2018-10-07T09:17:22.091Z,240
2018-10-07T09:18:22.404Z,240
2018-10-07T09:19:22.652Z,240
2018-10-07T09:20:22.486Z,245
2018-10-07T09:21:22.138Z,235
2018-10-07T09:22:22.911Z,230
2018-10-07T09:23:22.622Z,230
2018-10-07T09:24:22.616Z,225
2018-10-07T09:25:22.128Z,220
2018-10-07T09:26:22.355Z,215
2018-10-07T09:27:23.114Z,210
2018-10-07T09:28:22.626Z,205
2018-10-07T09:29:22.643Z,210
2018-10-07T09:30:22.929Z,200
2018-10-07T09:31:22.377Z,200
2018-10-07T09:32:23.079Z,200
2018-10-07T09:33:22.882Z,200
2018-10-07T09:34:22.894Z,200
2018-10-07T09:35:22.679Z,195
2018-10-07T09:36:22.398Z,195
2018-10-07T09:37:22.635Z,195
2018-10-07T09:38:22.449Z,195
2018-10-07T09:39:23.362Z,195
2018-10-07T09:40:22.780Z,195
2018-10-07T09:41:22.668Z,195
2018-10-07T09:42:22.662Z,195
2018-10-07T09:43:22.182Z,195
2018-10-07T09:44:23.158Z,210
2018-10-07T09:45:21.994Z,205
2018-10-07T09:46:22.171Z,200
2018-10-07T09:47:22.627Z,200
2018-10-07T09:48:22.669Z,210
2018-10-07T09:49:22.672Z,210
2018-10-07T09:50:22.695Z,205
2018-10-07T09:51:22.396Z,210
2018-10-07T09:52:23.112Z,210
2018-10-07T09:53:22.716Z,210
2018-10-07T09:54:22.706Z,210
2018-10-07T09:55:22.716Z,195
2018-10-07T09:56:22.962Z,190
2018-10-07T09:57:22.520Z,190
2018-10-07T09:58:22.464Z,190
2018-10-07T09:59:22.478Z,190
2018-10-07T10:00:22.250Z,190
2018-10-07T10:01:23.110Z,195
2018-10-07T10:02:22.701Z,200
2018-10-07T10:03:22.709Z,195
2018-10-07T10:04:23.153Z,195
2018-10-07T10:05:22.484Z,190
2018-10-07T10:06:22.964Z,195
2018-10-07T10:07:22.469Z,195
2018-10-07T10:08:22.713Z,210
2018-10-07T10:09:22.240Z,195
2018-10-07T10:10:22.583Z,195
2018-10-07T10:11:23.530Z,195
2018-10-07T10:12:22.194Z,200
2018-10-07T10:13:22.457Z,185
2018-10-07T10:14:22.715Z,185
2018-10-07T10:15:22.773Z,180
2018-10-07T10:16:22.487Z,175
2018-10-07T10:17:23.032Z,185
2018-10-07T10:18:22.507Z,175
2018-10-07T10:19:22.712Z,180
2018-10-07T10:20:22.742Z,170
2018-10-07T10:21:22.689Z,165
2018-10-07T10:22:22.720Z,165
2018-10-07T10:23:22.470Z,160
2018-10-07T10:24:22.743Z,165
2018-10-07T10:25:23.059Z,160
2018-10-07T10:26:22.490Z,155
2018-10-07T10:27:23.007Z,155
2018-10-07T10:28:22.583Z,155
2018-10-07T10:29:22.624Z,155
2018-10-07T10:30:22.852Z,165
2018-10-07T10:31:23.038Z,190
2018-10-07T10:32:22.502Z,200
2018-10-07T10:33:22.743Z,195
2018-10-07T10:34:22.738Z,200
2018-10-07T10:35:22.815Z,190
2018-10-07T10:36:22.763Z,170
2018-10-07T10:37:22.479Z,165
2018-10-07T10:38:22.263Z,190
2018-10-07T10:39:22.838Z,200
2018-10-07T10:40:22.800Z,200
2018-10-07T10:41:23.063Z,200
2018-10-07T10:42:23.027Z,200
2018-10-07T10:43:22.777Z,200
2018-10-07T10:44:22.503Z,200
2018-10-07T10:45:22.853Z,200
2018-10-07T10:46:22.790Z,200
2018-10-07T10:47:23.043Z,200
2018-10-07T10:48:22.022Z,200
2018-10-07T10:49:22.552Z,200
2018-10-07T10:50:22.558Z,200
2018-10-07T10:51:22.784Z,200
2018-10-07T10:52:23.056Z,200
2018-10-07T10:53:22.534Z,200
2018-10-07T10:54:23.050Z,200
2018-10-07T10:55:23.186Z,200
2018-10-07T10:56:22.794Z,200
2018-10-07T10:57:22.807Z,200
2018-10-07T10:58:22.532Z,200
2018-10-07T10:59:23.061Z,200
2018-10-07T11:00:22.951Z,200
2018-10-07T11:01:22.635Z,195
2018-10-07T11:02:22.549Z,195
2018-10-07T11:03:22.865Z,200
2018-10-07T11:04:22.601Z,200
2018-10-07T11:05:23.014Z,200
2018-10-07T11:06:23.070Z,200
2018-10-07T11:07:22.555Z,200
2018-10-07T11:08:22.560Z,200
2018-10-07T11:09:22.853Z,200
2018-10-07T11:10:22.593Z,200
2018-10-07T11:11:22.833Z,200
2018-10-07T11:12:22.314Z,200
2018-10-07T11:13:22.848Z,200
2018-10-07T11:14:22.831Z,200
2018-10-07T11:15:23.044Z,205
2018-10-07T11:16:22.587Z,200
2018-10-07T11:17:23.130Z,195
2018-10-07T11:18:22.852Z,195
2018-10-07T11:19:23.737Z,195
2018-10-07T11:20:22.902Z,195
2018-10-07T11:21:23.077Z,195
2018-10-07T11:22:22.570Z,195
2018-10-07T11:23:22.417Z,195
2018-10-07T11:24:23.152Z,190
2018-10-07T11:25:22.894Z,195
2018-10-07T11:26:23.019Z,195
2018-10-07T11:27:22.871Z,190
2018-10-07T11:28:22.879Z,185
2018-10-07T11:29:22.603Z,190
2018-10-07T11:30:22.386Z,190
2018-10-07T11:31:22.630Z,190
2018-10-07T11:32:22.621Z,190
2018-10-07T11:33:22.615Z,190
2018-10-07T11:34:22.637Z,185
2018-10-07T11:35:23.249Z,185
2018-10-07T11:36:22.616Z,180
2018-10-07T11:37:22.890Z,180
2018-10-07T11:38:23.174Z,180
2018-10-07T11:39:22.639Z,180
2018-10-07T11:40:22.417Z,180
2018-10-07T11:41:22.895Z,180
2018-10-07T11:42:22.633Z,180
2018-10-07T11:43:22.642Z,180
2018-10-07T11:44:23.704Z,180
2018-10-07T11:45:22.965Z,180
2018-10-07T11:46:22.935Z,180
2018-10-07T11:47:22.653Z,180
2018-10-07T11:48:22.665Z,180
2018-10-07T11:49:22.419Z,180
2018-10-07T11:50:23.008Z,180
2018-10-07T11:51:22.946Z,180
2018-10-07T11:52:22.165Z,180
2018-10-07T11:53:23.225Z,180
2018-10-07T11:54:23.195Z,180
2018-10-07T11:55:23.287Z,180
2018-10-07T11:56:22.681Z,180
2018-10-07T11:57:22.700Z,180
2018-10-07T11:58:22.949Z,175
2018-10-07T11:59:22.958Z,175
2018-10-07T12:00:22.984Z,180
2018-10-07T12:01:22.939Z,175
2018-10-07T12:02:23.246Z,175
2018-10-07T12:03:22.485Z,175
2018-10-07T12:04:22.565Z,175
2018-10-07T12:05:22.963Z,175
2018-10-07T12:06:22.454Z,175
2018-10-07T12:07:22.946Z,175
2018-10-07T12:08:23.259Z,175
2018-10-07T12:09:23.220Z,175
2018-10-07T12:10:23.620Z,175
2018-10-07T12:11:22.716Z,175
2018-10-07T12:12:22.727Z,175
2018-10-07T12:13:23.286Z,170
2018-10-07T12:14:22.993Z,170
2018-10-07T12:15:22.780Z,170
2018-10-07T12:16:22.812Z,170
2018-10-07T12:17:23.001Z,170
2018-10-07T12:18:22.758Z,170
2018-10-07T12:19:22.986Z,170
2018-10-07T12:20:23.334Z,170
2018-10-07T12:21:22.764Z,170
2018-10-07T12:22:23.003Z,165
2018-10-07T12:23:22.785Z,165
2018-10-07T12:24:23.014Z,165
2018-10-07T12:25:23.052Z,165
2018-10-07T12:26:23.261Z,165
2018-10-07T12:27:23.275Z,165
2018-10-07T12:28:22.774Z,165
2018-10-07T12:29:22.778Z,170
2018-10-07T12:30:23.327Z,170
2018-10-07T12:31:23.017Z,170
2018-10-07T12:32:23.020Z,170
2018-10-07T12:33:23.286Z,170
2018-10-07T12:34:23.283Z,170
2018-10-07T12:35:22.542Z,170
2018-10-07T12:36:23.303Z,170
2018-10-07T12:37:22.530Z,170
2018-10-07T12:38:22.787Z,170
2018-10-07T12:39:22.539Z,170
2018-10-07T12:40:23.134Z,170
2018-10-07T12:41:22.291Z,170
2018-10-07T12:42:22.822Z,170
2018-10-07T12:43:23.098Z,170
2018-10-07T12:44:23.057Z,170
2018-10-07T12:45:23.355Z,165
2018-10-07T12:46:23.329Z,165
2018-10-07T12:47:22.798Z,165
2018-10-07T12:48:23.061Z,165
2018-10-07T12:49:23.334Z,170
2018-10-07T12:50:23.136Z,170
2018-10-07T12:51:23.082Z,170
2018-10-07T12:52:23.349Z,170
2018-10-07T12:53:22.571Z,170
2018-10-07T12:54:23.246Z,170
2018-10-07T12:55:22.834Z,165
2018-10-07T12:56:23.111Z,170
2018-10-07T12:57:23.114Z,165
2018-10-07T12:58:23.098Z,165
2018-10-07T12:59:23.354Z,165
2018-10-07T13:00:23.153Z,165
2018-10-07T13:01:23.106Z,165
2018-10-07T13:02:23.378Z,165
2018-10-07T13:03:23.118Z,165
2018-10-07T13:04:23.109Z,165
2018-10-07T13:05:23.418Z,165
2018-10-07T13:06:23.378Z,165
2018-10-07T13:07:23.136Z,165
2018-10-07T13:08:22.603Z,165
2018-10-07T13:09:22.621Z,165
2018-10-07T13:10:22.933Z,165
2018-10-07T13:11:23.142Z,165
2018-10-07T13:12:23.166Z,165
2018-10-07T13:13:23.124Z,165
2018-10-07T13:14:22.895Z,165
2018-10-07T13:15:23.156Z,165
2018-10-07T13:16:23.144Z,165
2018-10-07T13:17:23.146Z,165
2018-10-07T13:18:23.435Z,160
2018-10-07T13:19:23.661Z,160
2018-10-07T13:20:23.206Z,160
2018-10-07T13:21:23.175Z,160
2018-10-07T13:22:22.935Z,165
2018-10-07T13:23:23.172Z,165
2018-10-07T13:24:23.186Z,165
2018-10-07T13:25:23.194Z,160
2018-10-07T13:26:23.200Z,160
2018-10-07T13:27:22.920Z,160
2018-10-07T13:28:23.455Z,165
2018-10-07T13:29:22.675Z,165
2018-10-07T13:30:23.250Z,165
2018-10-07T13:31:23.197Z,165
2018-10-07T13:32:23.201Z,165
2018-10-07T13:33:23.476Z,165
2018-10-07T13:34:23.452Z,170
2018-10-07T13:35:23.008Z,170
2018-10-07T13:36:23.218Z,165
2018-10-07T13:37:22.982Z,165
2018-10-07T13:38:23.212Z,165
2018-10-07T13:39:23.468Z,165
2018-10-07T13:40:26.353Z,160
2018-10-07T13:41:22.453Z,160
2018-10-07T13:42:22.978Z,160
2018-10-07T13:43:23.226Z,160
2018-10-07T13:44:23.242Z,160
2018-10-07T13:45:23.246Z,160
2018-10-07T13:46:22.971Z,160
2018-10-07T13:47:23.250Z,155
2018-10-07T13:48:23.530Z,155
2018-10-07T13:49:22.989Z,155
2018-10-07T13:50:23.310Z,155
2018-10-07T13:51:23.279Z,155
2018-10-07T13:52:23.285Z,155
2018-10-07T13:53:23.843Z,155
2018-10-07T13:54:23.517Z,155
2018-10-07T13:55:23.568Z,155
2018-10-07T13:56:23.252Z,150
2018-10-07T13:57:22.753Z,150
2018-10-07T13:58:23.022Z,150
2018-10-07T13:59:23.030Z,145
2018-10-07T14:00:23.349Z,145
2018-10-07T14:01:22.780Z,145
2018-10-07T14:02:23.040Z,145
2018-10-07T14:03:23.433Z,145
2018-10-07T14:04:23.062Z,145
2018-10-07T14:05:23.123Z,145
2018-10-07T14:06:23.588Z,140
2018-10-07T14:07:23.334Z,145
2018-10-07T14:08:23.044Z,145
2018-10-07T14:09:23.573Z,145
2018-10-07T14:10:23.137Z,145
2018-10-07T14:11:23.334Z,145